sensor_id;sensor_type;location;lat;lon;timestamp;P1;durP1;ratioP1;P2;durP2;ratioP2
64210;SDS011;50528;48.514;14.394;2023-03-19T00:00:28;13.40;;;9.50;;
64210;SDS011;50528;48.514;14.394;2023-03-19T00:01:35;13.60;;;9.20;;
64210;SDS011;50528;48.514;14.394;2023-03-19T00:02:29;14.40;;;9.50;;
64210;SDS011;50528;48.514;14.394;2023-03-19T00:03:05;14.60;;;9.40;;
64210;SDS011;50528;48.514;14.394;2023-03-19T00:03:39;14.50;;;9.70;;
64210;SDS011;50528;48.514;14.394;2023-03-19T00:04:14;14.00;;;10.10;;
64210;SDS011;50528;48.514;14.394;2023-03-19T00:04:54;15.90;;;10.20;;
64210;SDS011;50528;48.514;14.394;2023-03-19T00:05:36;16.50;;;10.30;;
64210;SDS011;50528;48.514;14.394;2023-03-19T00:06:11;14.60;;;10.00;;
64210;SDS011;50528;48.514;14.394;2023-03-19T00:06:49;14.20;;;10.10;;
64210;SDS011;50528;48.514;14.394;2023-03-19T00:07:26;13.80;;;10.10;;
64210;SDS011;50528;48.514;14.394;2023-03-19T00:08:00;17.30;;;10.40;;
64210;SDS011;50528;48.514;14.394;2023-03-19T00:08:35;15.00;;;10.20;;
64210;SDS011;50528;48.514;14.394;2023-03-19T00:09:11;14.70;;;10.40;;
64210;SDS011;50528;48.514;14.394;2023-03-19T00:09:45;16.70;;;11.10;;
64210;SDS011;50528;48.514;14.394;2023-03-19T00:10:21;17.30;;;10.80;;
64210;SDS011;50528;48.514;14.394;2023-03-19T00:11:04;17.10;;;11.60;;
64210;SDS011;50528;48.514;14.394;2023-03-19T00:11:40;15.50;;;10.60;;
64210;SDS011;50528;48.514;14.394;2023-03-19T00:12:14;16.70;;;10.60;;
64210;SDS011;50528;48.514;14.394;2023-03-19T00:12:51;17.30;;;10.80;;
64210;SDS011;50528;48.514;14.394;2023-03-19T00:13:24;13.90;;;10.40;;
64210;SDS011;50528;48.514;14.394;2023-03-19T00:14:08;15.00;;;10.30;;
64210;SDS011;50528;48.514;14.394;2023-03-19T00:14:42;16.20;;;10.90;;
64210;SDS011;50528;48.514;14.394;2023-03-19T00:15:16;14.50;;;10.60;;
64210;SDS011;50528;48.514;14.394;2023-03-19T00:15:53;15.30;;;10.90;;
64210;SDS011;50528;48.514;14.394;2023-03-19T00:16:33;15.80;;;10.50;;
64210;SDS011;50528;48.514;14.394;2023-03-19T00:17:09;15.60;;;10.90;;
64210;SDS011;50528;48.514;14.394;2023-03-19T00:17:43;17.20;;;11.10;;
64210;SDS011;50528;48.514;14.394;2023-03-19T00:18:17;16.30;;;11.50;;
64210;SDS011;50528;48.514;14.394;2023-03-19T00:18:53;15.70;;;10.90;;
64210;SDS011;50528;48.514;14.394;2023-03-19T00:19:29;16.20;;;11.30;;
64210;SDS011;50528;48.514;14.394;2023-03-19T00:20:03;14.50;;;10.70;;
64210;SDS011;50528;48.514;14.394;2023-03-19T00:20:41;16.00;;;11.50;;
64210;SDS011;50528;48.514;14.394;2023-03-19T00:21:21;15.40;;;11.60;;
64210;SDS011;50528;48.514;14.394;2023-03-19T00:21:57;16.20;;;10.70;;
64210;SDS011;50528;48.514;14.394;2023-03-19T00:22:34;15.30;;;11.30;;
64210;SDS011;50528;48.514;14.394;2023-03-19T00:23:08;16.80;;;11.60;;
64210;SDS011;50528;48.514;14.394;2023-03-19T00:23:46;18.20;;;11.00;;
64210;SDS011;50528;48.514;14.394;2023-03-19T00:25:01;15.10;;;10.70;;
64210;SDS011;50528;48.514;14.394;2023-03-19T00:25:40;13.80;;;10.20;;
64210;SDS011;50528;48.514;14.394;2023-03-19T00:26:15;20.70;;;10.80;;
64210;SDS011;50528;48.514;14.394;2023-03-19T00:26:53;14.70;;;9.80;;
64210;SDS011;50528;48.514;14.394;2023-03-19T00:27:27;14.40;;;10.10;;
64210;SDS011;50528;48.514;14.394;2023-03-19T00:28:04;15.30;;;10.00;;
64210;SDS011;50528;48.514;14.394;2023-03-19T00:28:38;15.40;;;10.30;;
64210;SDS011;50528;48.514;14.394;2023-03-19T00:29:13;14.10;;;10.40;;
64210;SDS011;50528;48.514;14.394;2023-03-19T00:29:47;17.50;;;9.60;;
64210;SDS011;50528;48.514;14.394;2023-03-19T00:30:32;14.40;;;10.20;;
64210;SDS011;50528;48.514;14.394;2023-03-19T00:31:09;14.90;;;10.10;;
64210;SDS011;50528;48.514;14.394;2023-03-19T00:31:55;14.00;;;10.40;;
64210;SDS011;50528;48.514;14.394;2023-03-19T00:32:49;15.40;;;10.80;;
64210;SDS011;50528;48.514;14.394;2023-03-19T00:33:23;15.70;;;10.70;;
64210;SDS011;50528;48.514;14.394;2023-03-19T00:33:59;13.10;;;9.60;;
64210;SDS011;50528;48.514;14.394;2023-03-19T00:34:33;17.30;;;10.50;;
64210;SDS011;50528;48.514;14.394;2023-03-19T00:35:07;15.50;;;10.50;;
64210;SDS011;50528;48.514;14.394;2023-03-19T00:35:43;18.80;;;9.80;;
64210;SDS011;50528;48.514;14.394;2023-03-19T00:36:17;14.50;;;9.90;;
64210;SDS011;50528;48.514;14.394;2023-03-19T00:36:52;15.10;;;9.70;;
64210;SDS011;50528;48.514;14.394;2023-03-19T00:37:26;15.40;;;10.00;;
64210;SDS011;50528;48.514;14.394;2023-03-19T00:38:00;14.40;;;10.50;;
64210;SDS011;50528;48.514;14.394;2023-03-19T00:38:36;16.80;;;10.20;;
64210;SDS011;50528;48.514;14.394;2023-03-19T00:39:10;13.20;;;9.60;;
64210;SDS011;50528;48.514;14.394;2023-03-19T00:39:44;15.90;;;10.00;;
64210;SDS011;50528;48.514;14.394;2023-03-19T00:40:19;15.20;;;9.50;;
64210;SDS011;50528;48.514;14.394;2023-03-19T00:40:54;15.80;;;9.90;;
64210;SDS011;50528;48.514;14.394;2023-03-19T00:41:27;13.10;;;9.50;;
64210;SDS011;50528;48.514;14.394;2023-03-19T00:42:03;14.50;;;9.70;;
64210;SDS011;50528;48.514;14.394;2023-03-19T00:42:37;12.60;;;9.70;;
64210;SDS011;50528;48.514;14.394;2023-03-19T00:43:10;13.80;;;9.20;;
64210;SDS011;50528;48.514;14.394;2023-03-19T00:43:44;13.20;;;9.30;;
64210;SDS011;50528;48.514;14.394;2023-03-19T00:44:20;13.70;;;9.60;;
64210;SDS011;50528;48.514;14.394;2023-03-19T00:44:54;13.30;;;9.40;;
64210;SDS011;50528;48.514;14.394;2023-03-19T00:45:29;12.10;;;8.70;;
64210;SDS011;50528;48.514;14.394;2023-03-19T00:46:03;14.40;;;9.70;;
64210;SDS011;50528;48.514;14.394;2023-03-19T00:46:37;13.50;;;9.10;;
64210;SDS011;50528;48.514;14.394;2023-03-19T00:47:16;15.10;;;9.50;;
64210;SDS011;50528;48.514;14.394;2023-03-19T00:47:50;12.20;;;8.50;;
64210;SDS011;50528;48.514;14.394;2023-03-19T00:48:23;13.40;;;9.30;;
64210;SDS011;50528;48.514;14.394;2023-03-19T00:48:57;13.70;;;9.80;;
64210;SDS011;50528;48.514;14.394;2023-03-19T00:49:31;14.00;;;9.70;;
64210;SDS011;50528;48.514;14.394;2023-03-19T00:50:05;13.80;;;9.70;;
64210;SDS011;50528;48.514;14.394;2023-03-19T00:50:39;12.40;;;9.30;;
64210;SDS011;50528;48.514;14.394;2023-03-19T00:51:13;13.10;;;9.00;;
64210;SDS011;50528;48.514;14.394;2023-03-19T00:51:47;15.50;;;9.50;;
64210;SDS011;50528;48.514;14.394;2023-03-19T00:52:21;13.90;;;9.70;;
64210;SDS011;50528;48.514;14.394;2023-03-19T00:52:55;15.10;;;9.50;;
64210;SDS011;50528;48.514;14.394;2023-03-19T00:53:29;11.90;;;8.90;;
64210;SDS011;50528;48.514;14.394;2023-03-19T00:54:03;13.10;;;9.30;;
64210;SDS011;50528;48.514;14.394;2023-03-19T00:54:36;12.40;;;9.40;;
64210;SDS011;50528;48.514;14.394;2023-03-19T00:55:10;14.10;;;8.80;;
64210;SDS011;50528;48.514;14.394;2023-03-19T00:55:46;12.70;;;9.30;;
64210;SDS011;50528;48.514;14.394;2023-03-19T00:56:19;13.90;;;9.20;;
64210;SDS011;50528;48.514;14.394;2023-03-19T00:56:53;13.20;;;8.90;;
64210;SDS011;50528;48.514;14.394;2023-03-19T00:57:26;13.00;;;8.90;;
64210;SDS011;50528;48.514;14.394;2023-03-19T00:58:00;13.90;;;8.70;;
64210;SDS011;50528;48.514;14.394;2023-03-19T00:58:34;12.70;;;9.10;;
64210;SDS011;50528;48.514;14.394;2023-03-19T00:59:10;14.30;;;9.00;;
64210;SDS011;50528;48.514;14.394;2023-03-19T00:59:44;12.60;;;9.30;;
64210;SDS011;50528;48.514;14.394;2023-03-19T01:00:18;12.30;;;9.00;;
64210;SDS011;50528;48.514;14.394;2023-03-19T01:00:53;16.30;;;8.80;;
64210;SDS011;50528;48.514;14.394;2023-03-19T01:01:27;17.10;;;9.40;;
64210;SDS011;50528;48.514;14.394;2023-03-19T01:02:01;16.60;;;8.80;;
64210;SDS011;50528;48.514;14.394;2023-03-19T01:02:36;16.70;;;8.60;;
64210;SDS011;50528;48.514;14.394;2023-03-19T01:03:11;11.90;;;8.60;;
64210;SDS011;50528;48.514;14.394;2023-03-19T01:03:46;14.20;;;8.70;;
64210;SDS011;50528;48.514;14.394;2023-03-19T01:04:20;12.20;;;8.90;;
64210;SDS011;50528;48.514;14.394;2023-03-19T01:04:56;12.10;;;9.00;;
64210;SDS011;50528;48.514;14.394;2023-03-19T01:05:30;12.80;;;9.40;;
64210;SDS011;50528;48.514;14.394;2023-03-19T01:06:04;12.40;;;9.00;;
64210;SDS011;50528;48.514;14.394;2023-03-19T01:06:39;13.40;;;9.30;;
64210;SDS011;50528;48.514;14.394;2023-03-19T01:07:12;12.90;;;8.90;;
64210;SDS011;50528;48.514;14.394;2023-03-19T01:07:49;13.60;;;8.70;;
64210;SDS011;50528;48.514;14.394;2023-03-19T01:08:23;15.40;;;9.50;;
64210;SDS011;50528;48.514;14.394;2023-03-19T01:08:56;16.30;;;9.30;;
64210;SDS011;50528;48.514;14.394;2023-03-19T01:09:32;13.80;;;8.90;;
64210;SDS011;50528;48.514;14.394;2023-03-19T01:10:08;11.70;;;8.40;;
64210;SDS011;50528;48.514;14.394;2023-03-19T01:10:43;12.10;;;8.80;;
64210;SDS011;50528;48.514;14.394;2023-03-19T01:11:22;11.90;;;8.90;;
64210;SDS011;50528;48.514;14.394;2023-03-19T01:11:56;12.80;;;9.10;;
64210;SDS011;50528;48.514;14.394;2023-03-19T01:12:29;11.80;;;9.20;;
64210;SDS011;50528;48.514;14.394;2023-03-19T01:13:03;12.60;;;8.80;;
64210;SDS011;50528;48.514;14.394;2023-03-19T01:13:37;12.40;;;8.50;;
64210;SDS011;50528;48.514;14.394;2023-03-19T01:14:11;12.30;;;9.00;;
64210;SDS011;50528;48.514;14.394;2023-03-19T01:14:48;16.00;;;8.60;;
64210;SDS011;50528;48.514;14.394;2023-03-19T01:15:22;12.40;;;8.40;;
64210;SDS011;50528;48.514;14.394;2023-03-19T01:15:56;13.20;;;8.70;;
64210;SDS011;50528;48.514;14.394;2023-03-19T01:16:30;12.90;;;9.50;;
64210;SDS011;50528;48.514;14.394;2023-03-19T01:17:07;13.90;;;8.90;;
64210;SDS011;50528;48.514;14.394;2023-03-19T01:17:41;13.90;;;9.10;;
64210;SDS011;50528;48.514;14.394;2023-03-19T01:18:17;12.80;;;8.60;;
64210;SDS011;50528;48.514;14.394;2023-03-19T01:18:51;12.10;;;8.80;;
64210;SDS011;50528;48.514;14.394;2023-03-19T01:19:25;12.50;;;8.60;;
64210;SDS011;50528;48.514;14.394;2023-03-19T01:19:59;12.60;;;8.80;;
64210;SDS011;50528;48.514;14.394;2023-03-19T01:20:36;12.90;;;8.70;;
64210;SDS011;50528;48.514;14.394;2023-03-19T01:21:12;12.40;;;8.30;;
64210;SDS011;50528;48.514;14.394;2023-03-19T01:21:50;13.90;;;8.90;;
64210;SDS011;50528;48.514;14.394;2023-03-19T01:22:26;15.90;;;9.00;;
64210;SDS011;50528;48.514;14.394;2023-03-19T01:23:06;11.80;;;8.40;;
64210;SDS011;50528;48.514;14.394;2023-03-19T01:23:43;10.90;;;8.00;;
64210;SDS011;50528;48.514;14.394;2023-03-19T01:24:20;11.40;;;8.20;;
64210;SDS011;50528;48.514;14.394;2023-03-19T01:24:58;12.80;;;8.80;;
64210;SDS011;50528;48.514;14.394;2023-03-19T01:25:38;12.90;;;8.50;;
64210;SDS011;50528;48.514;14.394;2023-03-19T01:26:12;14.30;;;9.00;;
64210;SDS011;50528;48.514;14.394;2023-03-19T01:26:49;12.30;;;9.00;;
64210;SDS011;50528;48.514;14.394;2023-03-19T01:27:52;10.20;;;7.90;;
64210;SDS011;50528;48.514;14.394;2023-03-19T01:28:27;11.70;;;8.30;;
64210;SDS011;50528;48.514;14.394;2023-03-19T01:29:03;11.80;;;8.80;;
64210;SDS011;50528;48.514;14.394;2023-03-19T01:29:38;13.90;;;9.20;;
64210;SDS011;50528;48.514;14.394;2023-03-19T01:30:26;14.00;;;9.10;;
64210;SDS011;50528;48.514;14.394;2023-03-19T01:31:06;10.80;;;8.30;;
64210;SDS011;50528;48.514;14.394;2023-03-19T01:31:59;11.80;;;7.30;;
64210;SDS011;50528;48.514;14.394;2023-03-19T01:32:48;13.10;;;8.10;;
64210;SDS011;50528;48.514;14.394;2023-03-19T01:33:44;12.30;;;7.90;;
64210;SDS011;50528;48.514;14.394;2023-03-19T01:34:25;11.50;;;8.20;;
64210;SDS011;50528;48.514;14.394;2023-03-19T01:35:06;11.80;;;8.10;;
64210;SDS011;50528;48.514;14.394;2023-03-19T01:35:44;12.00;;;9.00;;
64210;SDS011;50528;48.514;14.394;2023-03-19T01:36:20;13.00;;;9.00;;
64210;SDS011;50528;48.514;14.394;2023-03-19T01:37:14;10.90;;;8.50;;
64210;SDS011;50528;48.514;14.394;2023-03-19T01:37:49;16.00;;;9.20;;
64210;SDS011;50528;48.514;14.394;2023-03-19T01:38:23;12.50;;;8.80;;
64210;SDS011;50528;48.514;14.394;2023-03-19T01:38:59;12.40;;;8.70;;
64210;SDS011;50528;48.514;14.394;2023-03-19T01:39:33;11.90;;;8.60;;
64210;SDS011;50528;48.514;14.394;2023-03-19T01:40:12;16.50;;;8.70;;
64210;SDS011;50528;48.514;14.394;2023-03-19T01:40:48;12.00;;;8.30;;
64210;SDS011;50528;48.514;14.394;2023-03-19T01:41:22;11.40;;;8.20;;
64210;SDS011;50528;48.514;14.394;2023-03-19T01:41:59;12.70;;;8.40;;
64210;SDS011;50528;48.514;14.394;2023-03-19T01:43:52;10.80;;;7.60;;
64210;SDS011;50528;48.514;14.394;2023-03-19T01:44:55;11.60;;;7.60;;
64210;SDS011;50528;48.514;14.394;2023-03-19T01:46:04;11.60;;;7.30;;
64210;SDS011;50528;48.514;14.394;2023-03-19T01:47:22;12.60;;;7.80;;
64210;SDS011;50528;48.514;14.394;2023-03-19T01:48:38;12.30;;;7.60;;
64210;SDS011;50528;48.514;14.394;2023-03-19T01:49:18;13.00;;;7.90;;
64210;SDS011;50528;48.514;14.394;2023-03-19T01:49:58;12.60;;;8.30;;
64210;SDS011;50528;48.514;14.394;2023-03-19T01:50:39;11.80;;;8.30;;
64210;SDS011;50528;48.514;14.394;2023-03-19T01:51:27;15.60;;;8.80;;
64210;SDS011;50528;48.514;14.394;2023-03-19T01:52:22;12.10;;;8.30;;
64210;SDS011;50528;48.514;14.394;2023-03-19T01:53:18;12.50;;;8.10;;
64210;SDS011;50528;48.514;14.394;2023-03-19T01:54:27;11.70;;;7.80;;
64210;SDS011;50528;48.514;14.394;2023-03-19T01:55:32;12.80;;;7.80;;
64210;SDS011;50528;48.514;14.394;2023-03-19T01:56:20;12.80;;;8.30;;
64210;SDS011;50528;48.514;14.394;2023-03-19T01:57:19;12.50;;;8.10;;
64210;SDS011;50528;48.514;14.394;2023-03-19T01:58:13;14.50;;;8.10;;
64210;SDS011;50528;48.514;14.394;2023-03-19T01:59:50;11.50;;;8.20;;
64210;SDS011;50528;48.514;14.394;2023-03-19T02:00:36;18.30;;;8.40;;
64210;SDS011;50528;48.514;14.394;2023-03-19T02:01:15;14.30;;;8.40;;
64210;SDS011;50528;48.514;14.394;2023-03-19T02:01:50;13.10;;;8.70;;
64210;SDS011;50528;48.514;14.394;2023-03-19T02:02:30;12.90;;;8.50;;
64210;SDS011;50528;48.514;14.394;2023-03-19T02:03:14;11.30;;;8.30;;
64210;SDS011;50528;48.514;14.394;2023-03-19T02:03:57;12.00;;;8.60;;
64210;SDS011;50528;48.514;14.394;2023-03-19T02:04:37;11.50;;;8.40;;
64210;SDS011;50528;48.514;14.394;2023-03-19T02:05:13;11.60;;;8.70;;
64210;SDS011;50528;48.514;14.394;2023-03-19T02:05:49;14.20;;;8.60;;
64210;SDS011;50528;48.514;14.394;2023-03-19T02:06:27;12.20;;;8.60;;
64210;SDS011;50528;48.514;14.394;2023-03-19T02:07:03;13.00;;;8.70;;
64210;SDS011;50528;48.514;14.394;2023-03-19T02:07:38;13.20;;;8.80;;
64210;SDS011;50528;48.514;14.394;2023-03-19T02:08:18;12.80;;;9.20;;
64210;SDS011;50528;48.514;14.394;2023-03-19T02:08:55;14.40;;;8.80;;
64210;SDS011;50528;48.514;14.394;2023-03-19T02:09:30;12.30;;;8.90;;
64210;SDS011;50528;48.514;14.394;2023-03-19T02:10:05;11.20;;;8.20;;
64210;SDS011;50528;48.514;14.394;2023-03-19T02:10:44;15.10;;;8.80;;
64210;SDS011;50528;48.514;14.394;2023-03-19T02:11:20;11.70;;;9.00;;
64210;SDS011;50528;48.514;14.394;2023-03-19T02:11:54;14.40;;;9.00;;
64210;SDS011;50528;48.514;14.394;2023-03-19T02:12:29;14.20;;;9.00;;
64210;SDS011;50528;48.514;14.394;2023-03-19T02:13:04;11.50;;;8.80;;
64210;SDS011;50528;48.514;14.394;2023-03-19T02:13:40;12.10;;;9.00;;
64210;SDS011;50528;48.514;14.394;2023-03-19T02:14:15;13.40;;;9.30;;
64210;SDS011;50528;48.514;14.394;2023-03-19T02:14:49;14.10;;;9.10;;
64210;SDS011;50528;48.514;14.394;2023-03-19T02:15:22;11.90;;;8.70;;
64210;SDS011;50528;48.514;14.394;2023-03-19T02:15:59;16.70;;;9.50;;
64210;SDS011;50528;48.514;14.394;2023-03-19T02:16:37;12.10;;;8.80;;
64210;SDS011;50528;48.514;14.394;2023-03-19T02:17:11;11.40;;;9.00;;
64210;SDS011;50528;48.514;14.394;2023-03-19T02:17:46;13.40;;;9.30;;
64210;SDS011;50528;48.514;14.394;2023-03-19T02:18:20;13.50;;;8.90;;
64210;SDS011;50528;48.514;14.394;2023-03-19T02:18:55;13.30;;;8.60;;
64210;SDS011;50528;48.514;14.394;2023-03-19T02:19:39;12.90;;;9.10;;
64210;SDS011;50528;48.514;14.394;2023-03-19T02:21:25;14.60;;;8.50;;
64210;SDS011;50528;48.514;14.394;2023-03-19T02:21:59;11.70;;;8.10;;
64210;SDS011;50528;48.514;14.394;2023-03-19T02:22:34;13.80;;;8.90;;
64210;SDS011;50528;48.514;14.394;2023-03-19T02:24:07;12.90;;;9.20;;
64210;SDS011;50528;48.514;14.394;2023-03-19T02:25:12;13.60;;;8.70;;
64210;SDS011;50528;48.514;14.394;2023-03-19T02:26:09;12.00;;;8.10;;
64210;SDS011;50528;48.514;14.394;2023-03-19T02:26:46;12.50;;;8.10;;
64210;SDS011;50528;48.514;14.394;2023-03-19T02:27:20;13.80;;;8.60;;
64210;SDS011;50528;48.514;14.394;2023-03-19T02:27:54;14.60;;;8.80;;
64210;SDS011;50528;48.514;14.394;2023-03-19T02:28:29;12.20;;;8.60;;
64210;SDS011;50528;48.514;14.394;2023-03-19T02:29:05;13.90;;;9.20;;
64210;SDS011;50528;48.514;14.394;2023-03-19T02:29:39;16.60;;;10.00;;
64210;SDS011;50528;48.514;14.394;2023-03-19T02:30:21;14.20;;;9.40;;
64210;SDS011;50528;48.514;14.394;2023-03-19T02:30:58;11.80;;;8.80;;
64210;SDS011;50528;48.514;14.394;2023-03-19T02:31:34;11.20;;;8.70;;
64210;SDS011;50528;48.514;14.394;2023-03-19T02:32:09;12.40;;;9.20;;
64210;SDS011;50528;48.514;14.394;2023-03-19T02:32:43;11.70;;;8.60;;
64210;SDS011;50528;48.514;14.394;2023-03-19T02:33:17;13.20;;;9.20;;
64210;SDS011;50528;48.514;14.394;2023-03-19T02:33:55;13.90;;;9.20;;
64210;SDS011;50528;48.514;14.394;2023-03-19T02:34:48;13.00;;;8.20;;
64210;SDS011;50528;48.514;14.394;2023-03-19T02:35:22;13.60;;;8.90;;
64210;SDS011;50528;48.514;14.394;2023-03-19T02:35:55;13.20;;;9.50;;
64210;SDS011;50528;48.514;14.394;2023-03-19T02:36:40;12.40;;;9.00;;
64210;SDS011;50528;48.514;14.394;2023-03-19T02:37:21;12.60;;;8.60;;
64210;SDS011;50528;48.514;14.394;2023-03-19T02:37:58;15.40;;;8.70;;
64210;SDS011;50528;48.514;14.394;2023-03-19T02:38:36;16.40;;;9.10;;
64210;SDS011;50528;48.514;14.394;2023-03-19T02:39:20;11.40;;;8.40;;
64210;SDS011;50528;48.514;14.394;2023-03-19T02:39:58;13.10;;;8.50;;
64210;SDS011;50528;48.514;14.394;2023-03-19T02:40:42;11.20;;;8.30;;
64210;SDS011;50528;48.514;14.394;2023-03-19T02:41:31;12.50;;;8.40;;
64210;SDS011;50528;48.514;14.394;2023-03-19T02:42:06;14.10;;;8.80;;
64210;SDS011;50528;48.514;14.394;2023-03-19T02:42:43;11.40;;;8.30;;
64210;SDS011;50528;48.514;14.394;2023-03-19T02:43:18;12.20;;;8.60;;
64210;SDS011;50528;48.514;14.394;2023-03-19T02:43:55;12.50;;;8.70;;
64210;SDS011;50528;48.514;14.394;2023-03-19T02:44:31;14.60;;;9.00;;
64210;SDS011;50528;48.514;14.394;2023-03-19T02:45:05;12.70;;;8.70;;
64210;SDS011;50528;48.514;14.394;2023-03-19T02:45:40;12.10;;;8.80;;
64210;SDS011;50528;48.514;14.394;2023-03-19T02:46:14;11.80;;;8.50;;
64210;SDS011;50528;48.514;14.394;2023-03-19T02:46:48;12.10;;;9.10;;
64210;SDS011;50528;48.514;14.394;2023-03-19T02:47:22;14.30;;;9.50;;
64210;SDS011;50528;48.514;14.394;2023-03-19T02:47:57;12.00;;;8.60;;
64210;SDS011;50528;48.514;14.394;2023-03-19T02:48:32;14.40;;;9.00;;
64210;SDS011;50528;48.514;14.394;2023-03-19T02:51:19;13.70;;;8.50;;
64210;SDS011;50528;48.514;14.394;2023-03-19T02:51:53;13.00;;;9.10;;
64210;SDS011;50528;48.514;14.394;2023-03-19T02:52:27;12.40;;;9.20;;
64210;SDS011;50528;48.514;14.394;2023-03-19T02:53:00;12.50;;;8.90;;
64210;SDS011;50528;48.514;14.394;2023-03-19T02:53:34;12.50;;;9.10;;
64210;SDS011;50528;48.514;14.394;2023-03-19T02:54:08;11.40;;;9.40;;
64210;SDS011;50528;48.514;14.394;2023-03-19T02:54:42;12.10;;;8.70;;
64210;SDS011;50528;48.514;14.394;2023-03-19T02:55:15;12.50;;;8.90;;
64210;SDS011;50528;48.514;14.394;2023-03-19T02:55:50;15.00;;;8.90;;
64210;SDS011;50528;48.514;14.394;2023-03-19T02:56:23;13.80;;;9.20;;
64210;SDS011;50528;48.514;14.394;2023-03-19T02:56:58;13.10;;;8.80;;
64210;SDS011;50528;48.514;14.394;2023-03-19T02:57:31;12.90;;;8.70;;
64210;SDS011;50528;48.514;14.394;2023-03-19T02:58:05;12.30;;;9.40;;
64210;SDS011;50528;48.514;14.394;2023-03-19T02:58:40;13.30;;;9.10;;
64210;SDS011;50528;48.514;14.394;2023-03-19T02:59:13;12.30;;;8.90;;
64210;SDS011;50528;48.514;14.394;2023-03-19T02:59:47;13.60;;;9.20;;
64210;SDS011;50528;48.514;14.394;2023-03-19T03:00:20;13.00;;;9.20;;
64210;SDS011;50528;48.514;14.394;2023-03-19T03:00:54;11.70;;;9.00;;
64210;SDS011;50528;48.514;14.394;2023-03-19T03:01:27;13.50;;;9.50;;
64210;SDS011;50528;48.514;14.394;2023-03-19T03:02:02;11.80;;;8.80;;
64210;SDS011;50528;48.514;14.394;2023-03-19T03:02:35;14.00;;;8.80;;
64210;SDS011;50528;48.514;14.394;2023-03-19T03:03:09;12.70;;;8.60;;
64210;SDS011;50528;48.514;14.394;2023-03-19T03:03:42;11.80;;;8.70;;
64210;SDS011;50528;48.514;14.394;2023-03-19T03:04:16;12.80;;;9.10;;
64210;SDS011;50528;48.514;14.394;2023-03-19T03:04:49;13.10;;;8.90;;
64210;SDS011;50528;48.514;14.394;2023-03-19T03:05:23;13.80;;;9.30;;
64210;SDS011;50528;48.514;14.394;2023-03-19T03:05:57;13.00;;;9.20;;
64210;SDS011;50528;48.514;14.394;2023-03-19T03:06:30;15.80;;;9.40;;
64210;SDS011;50528;48.514;14.394;2023-03-19T03:07:06;12.70;;;8.60;;
64210;SDS011;50528;48.514;14.394;2023-03-19T03:07:40;13.20;;;9.20;;
64210;SDS011;50528;48.514;14.394;2023-03-19T03:08:15;14.10;;;9.00;;
64210;SDS011;50528;48.514;14.394;2023-03-19T03:08:49;12.20;;;9.30;;
64210;SDS011;50528;48.514;14.394;2023-03-19T03:09:22;11.80;;;8.60;;
64210;SDS011;50528;48.514;14.394;2023-03-19T03:09:56;13.10;;;9.20;;
64210;SDS011;50528;48.514;14.394;2023-03-19T03:10:30;12.30;;;9.70;;
64210;SDS011;50528;48.514;14.394;2023-03-19T03:11:05;12.50;;;9.30;;
64210;SDS011;50528;48.514;14.394;2023-03-19T03:11:39;12.10;;;8.50;;
64210;SDS011;50528;48.514;14.394;2023-03-19T03:12:13;14.00;;;8.90;;
64210;SDS011;50528;48.514;14.394;2023-03-19T03:12:47;15.20;;;9.40;;
64210;SDS011;50528;48.514;14.394;2023-03-19T03:13:20;14.00;;;9.60;;
64210;SDS011;50528;48.514;14.394;2023-03-19T03:13:54;13.30;;;9.40;;
64210;SDS011;50528;48.514;14.394;2023-03-19T03:14:28;13.10;;;9.00;;
64210;SDS011;50528;48.514;14.394;2023-03-19T03:15:01;13.50;;;9.30;;
64210;SDS011;50528;48.514;14.394;2023-03-19T03:15:35;13.60;;;9.00;;
64210;SDS011;50528;48.514;14.394;2023-03-19T03:16:09;13.50;;;8.70;;
64210;SDS011;50528;48.514;14.394;2023-03-19T03:16:43;13.00;;;9.10;;
64210;SDS011;50528;48.514;14.394;2023-03-19T03:17:16;15.80;;;9.20;;
64210;SDS011;50528;48.514;14.394;2023-03-19T03:17:50;13.10;;;9.20;;
64210;SDS011;50528;48.514;14.394;2023-03-19T03:18:23;11.40;;;8.90;;
64210;SDS011;50528;48.514;14.394;2023-03-19T03:18:58;14.00;;;9.10;;
64210;SDS011;50528;48.514;14.394;2023-03-19T03:19:32;13.30;;;8.70;;
64210;SDS011;50528;48.514;14.394;2023-03-19T03:20:06;13.20;;;9.10;;
64210;SDS011;50528;48.514;14.394;2023-03-19T03:20:42;13.50;;;9.30;;
64210;SDS011;50528;48.514;14.394;2023-03-19T03:21:17;13.60;;;9.00;;
64210;SDS011;50528;48.514;14.394;2023-03-19T03:21:53;13.70;;;9.50;;
64210;SDS011;50528;48.514;14.394;2023-03-19T03:22:26;12.70;;;9.50;;
64210;SDS011;50528;48.514;14.394;2023-03-19T03:23:00;13.20;;;9.40;;
64210;SDS011;50528;48.514;14.394;2023-03-19T03:23:33;14.70;;;9.70;;
64210;SDS011;50528;48.514;14.394;2023-03-19T03:24:07;12.50;;;8.70;;
64210;SDS011;50528;48.514;14.394;2023-03-19T03:24:41;15.30;;;10.00;;
64210;SDS011;50528;48.514;14.394;2023-03-19T03:25:14;14.20;;;9.70;;
64210;SDS011;50528;48.514;14.394;2023-03-19T03:25:49;13.40;;;9.40;;
64210;SDS011;50528;48.514;14.394;2023-03-19T03:26:23;16.60;;;9.10;;
64210;SDS011;50528;48.514;14.394;2023-03-19T03:26:57;16.70;;;8.90;;
64210;SDS011;50528;48.514;14.394;2023-03-19T03:27:30;12.70;;;9.10;;
64210;SDS011;50528;48.514;14.394;2023-03-19T03:28:04;12.20;;;9.30;;
64210;SDS011;50528;48.514;14.394;2023-03-19T03:28:38;12.60;;;9.50;;
64210;SDS011;50528;48.514;14.394;2023-03-19T03:29:12;11.90;;;8.70;;
64210;SDS011;50528;48.514;14.394;2023-03-19T03:29:46;12.60;;;9.10;;
64210;SDS011;50528;48.514;14.394;2023-03-19T03:30:19;15.90;;;8.90;;
64210;SDS011;50528;48.514;14.394;2023-03-19T03:30:59;12.10;;;8.80;;
64210;SDS011;50528;48.514;14.394;2023-03-19T03:31:34;13.20;;;8.50;;
64210;SDS011;50528;48.514;14.394;2023-03-19T03:32:07;13.10;;;9.20;;
64210;SDS011;50528;48.514;14.394;2023-03-19T03:32:41;12.60;;;9.40;;
64210;SDS011;50528;48.514;14.394;2023-03-19T03:33:15;11.40;;;8.80;;
64210;SDS011;50528;48.514;14.394;2023-03-19T03:33:49;12.50;;;8.70;;
64210;SDS011;50528;48.514;14.394;2023-03-19T03:34:22;13.60;;;9.20;;
64210;SDS011;50528;48.514;14.394;2023-03-19T03:34:56;16.20;;;8.90;;
64210;SDS011;50528;48.514;14.394;2023-03-19T03:35:29;13.00;;;8.90;;
64210;SDS011;50528;48.514;14.394;2023-03-19T03:36:03;14.70;;;9.10;;
64210;SDS011;50528;48.514;14.394;2023-03-19T03:36:36;12.00;;;9.10;;
64210;SDS011;50528;48.514;14.394;2023-03-19T03:37:11;12.30;;;9.20;;
64210;SDS011;50528;48.514;14.394;2023-03-19T03:37:45;13.40;;;9.20;;
64210;SDS011;50528;48.514;14.394;2023-03-19T03:38:18;15.60;;;9.40;;
64210;SDS011;50528;48.514;14.394;2023-03-19T03:38:53;13.30;;;9.00;;
64210;SDS011;50528;48.514;14.394;2023-03-19T03:39:27;14.60;;;9.30;;
64210;SDS011;50528;48.514;14.394;2023-03-19T03:40:00;13.60;;;9.30;;
64210;SDS011;50528;48.514;14.394;2023-03-19T03:40:39;13.90;;;9.80;;
64210;SDS011;50528;48.514;14.394;2023-03-19T03:41:13;14.40;;;9.70;;
64210;SDS011;50528;48.514;14.394;2023-03-19T03:41:47;12.90;;;9.30;;
64210;SDS011;50528;48.514;14.394;2023-03-19T03:42:20;12.80;;;9.90;;
64210;SDS011;50528;48.514;14.394;2023-03-19T03:42:55;11.50;;;8.90;;
64210;SDS011;50528;48.514;14.394;2023-03-19T03:43:29;12.70;;;8.50;;